メインページ
METAR-TAF:

METAR-TAF

空港 :

Lytton, ブリティッシュコロンビア州, カナダ

緯度: 50-14N, 経度: 121-35W, 海抜: 229m

現時点の気象観測

当レポートは25分前の05:00(UTC)に作成
無風
気温 16°C
湿度 59%
気圧 1011 hPa
視程: 14.5km
高度9500ftの千切れ雲あり
高度11000ftの曇り

METAR: CWLY 220500Z AUTO 00000KT 9SM BKN095 OVC110 16/08 A2984 RMK SLP106 DENSITY ALT 1100FT

時間: 22:25 (05:25 UTC)


TAF: 見つかりません

4,000以上の空港の気象観測と天気予報(METAR報とTAF報)

利用可能な観測所は地図上に黄色い丸と赤い丸で示す。

丸の上にカーソルを重ねると観測所名を参照できる。

次にクリックすると気象観測と天気予報を参照できる。

マップの切り替え:黒色「×」印の緑ボタンをクリックして拡大、「-」印の緑ボタンをクリックして縮小、緑色の三角印をクリックして隣りの地図に切り替え


METAR-TAF: